sensor_id;sensor_type;location;lat;lon;timestamp;temperature;humidity
25753;DHT22;13600;50.816;4.416;2023-04-10T00:00:02;12.80;99.90
25753;DHT22;13600;50.816;4.416;2023-04-10T00:02:28;12.80;99.90
25753;DHT22;13600;50.816;4.416;2023-04-10T00:04:53;12.70;99.90
25753;DHT22;13600;50.816;4.416;2023-04-10T00:07:19;12.60;99.90
25753;DHT22;13600;50.816;4.416;2023-04-10T00:09:44;12.40;99.90
25753;DHT22;13600;50.816;4.416;2023-04-10T00:12:11;12.40;99.90
25753;DHT22;13600;50.816;4.416;2023-04-10T00:14:37;12.70;99.90
25753;DHT22;13600;50.816;4.416;2023-04-10T00:17:02;12.60;99.90
25753;DHT22;13600;50.816;4.416;2023-04-10T00:19:29;12.30;99.90
25753;DHT22;13600;50.816;4.416;2023-04-10T00:21:55;12.10;99.90
25753;DHT22;13600;50.816;4.416;2023-04-10T00:24:21;11.90;99.90
25753;DHT22;13600;50.816;4.416;2023-04-10T00:26:46;12.00;99.90
25753;DHT22;13600;50.816;4.416;2023-04-10T00:29:12;12.00;99.90
25753;DHT22;13600;50.816;4.416;2023-04-10T00:31:37;11.90;99.90
25753;DHT22;13600;50.816;4.416;2023-04-10T00:34:03;11.90;99.90
25753;DHT22;13600;50.816;4.416;2023-04-10T00:36:28;12.00;99.90
25753;DHT22;13600;50.816;4.416;2023-04-10T00:38:55;11.90;99.90
25753;DHT22;13600;50.816;4.416;2023-04-10T00:41:21;11.90;99.90
25753;DHT22;13600;50.816;4.416;2023-04-10T00:43:48;12.00;99.90
25753;DHT22;13600;50.816;4.416;2023-04-10T00:46:13;11.90;99.90
25753;DHT22;13600;50.816;4.416;2023-04-10T00:48:40;11.90;99.90
25753;DHT22;13600;50.816;4.416;2023-04-10T00:51:05;12.00;99.90
25753;DHT22;13600;50.816;4.416;2023-04-10T00:53:31;12.00;99.90
25753;DHT22;13600;50.816;4.416;2023-04-10T00:55:57;12.00;99.90
25753;DHT22;13600;50.816;4.416;2023-04-10T00:58:23;12.00;99.90
25753;DHT22;13600;50.816;4.416;2023-04-10T01:00:51;11.90;99.90
25753;DHT22;13600;50.816;4.416;2023-04-10T01:03:17;11.80;99.90
25753;DHT22;13600;50.816;4.416;2023-04-10T01:05:46;12.00;99.90
25753;DHT22;13600;50.816;4.416;2023-04-10T01:13:54;12.00;99.90
25753;DHT22;13600;50.816;4.416;2023-04-10T01:16:23;12.00;99.90
25753;DHT22;13600;50.816;4.416;2023-04-10T01:19:14;11.90;99.90
25753;DHT22;13600;50.816;4.416;2023-04-10T01:21:46;12.00;99.90
25753;DHT22;13600;50.816;4.416;2023-04-10T01:29:25;11.80;99.90
25753;DHT22;13600;50.816;4.416;2023-04-10T01:32:04;11.80;99.90
25753;DHT22;13600;50.816;4.416;2023-04-10T01:34:37;11.90;99.90
25753;DHT22;13600;50.816;4.416;2023-04-10T01:37:06;11.90;99.90
25753;DHT22;13600;50.816;4.416;2023-04-10T01:39:34;11.90;99.90
25753;DHT22;13600;50.816;4.416;2023-04-10T01:42:00;11.90;99.90
25753;DHT22;13600;50.816;4.416;2023-04-10T01:44:28;11.90;99.90
25753;DHT22;13600;50.816;4.416;2023-04-10T01:46:54;12.00;99.90
25753;DHT22;13600;50.816;4.416;2023-04-10T01:49:20;12.00;99.90
25753;DHT22;13600;50.816;4.416;2023-04-10T01:51:48;11.90;99.90
25753;DHT22;13600;50.816;4.416;2023-04-10T01:54:13;11.90;99.90
25753;DHT22;13600;50.816;4.416;2023-04-10T01:56:40;11.90;99.90
25753;DHT22;13600;50.816;4.416;2023-04-10T01:59:06;12.00;99.90
25753;DHT22;13600;50.816;4.416;2023-04-10T02:01:32;12.00;99.90
25753;DHT22;13600;50.816;4.416;2023-04-10T02:03:57;11.90;99.90
25753;DHT22;13600;50.816;4.416;2023-04-10T02:06:26;11.90;99.90
25753;DHT22;13600;50.816;4.416;2023-04-10T02:09:03;12.00;99.90
25753;DHT22;13600;50.816;4.416;2023-04-10T02:11:40;11.90;99.90
25753;DHT22;13600;50.816;4.416;2023-04-10T02:14:10;11.80;99.90
25753;DHT22;13600;50.816;4.416;2023-04-10T02:16:36;11.90;99.90
25753;DHT22;13600;50.816;4.416;2023-04-10T02:19:03;11.80;99.90
25753;DHT22;13600;50.816;4.416;2023-04-10T02:21:31;11.90;99.90
25753;DHT22;13600;50.816;4.416;2023-04-10T02:23:58;11.90;99.90
25753;DHT22;13600;50.816;4.416;2023-04-10T02:26:23;11.90;99.90
25753;DHT22;13600;50.816;4.416;2023-04-10T02:28:49;11.90;99.90
25753;DHT22;13600;50.816;4.416;2023-04-10T02:31:15;11.90;99.90
25753;DHT22;13600;50.816;4.416;2023-04-10T02:33:40;11.80;99.90
25753;DHT22;13600;50.816;4.416;2023-04-10T02:36:06;11.80;99.90
25753;DHT22;13600;50.816;4.416;2023-04-10T02:38:32;11.70;99.90
25753;DHT22;13600;50.816;4.416;2023-04-10T02:40:57;11.70;99.90
25753;DHT22;13600;50.816;4.416;2023-04-10T02:43:23;11.70;99.90
25753;DHT22;13600;50.816;4.416;2023-04-10T02:45:48;11.70;99.90
25753;DHT22;13600;50.816;4.416;2023-04-10T02:48:14;11.70;99.90
25753;DHT22;13600;50.816;4.416;2023-04-10T02:50:39;11.70;99.90
25753;DHT22;13600;50.816;4.416;2023-04-10T02:53:12;11.70;99.90
25753;DHT22;13600;50.816;4.416;2023-04-10T02:55:37;11.60;99.90
25753;DHT22;13600;50.816;4.416;2023-04-10T02:58:03;11.70;99.90
25753;DHT22;13600;50.816;4.416;2023-04-10T03:00:28;11.60;99.90
25753;DHT22;13600;50.816;4.416;2023-04-10T03:02:54;11.60;99.90
25753;DHT22;13600;50.816;4.416;2023-04-10T03:05:19;11.50;99.90
25753;DHT22;13600;50.816;4.416;2023-04-10T03:07:45;11.50;99.90
25753;DHT22;13600;50.816;4.416;2023-04-10T03:10:11;11.60;99.90
25753;DHT22;13600;50.816;4.416;2023-04-10T03:12:36;11.60;99.90
25753;DHT22;13600;50.816;4.416;2023-04-10T03:15:02;11.50;99.90
25753;DHT22;13600;50.816;4.416;2023-04-10T03:17:27;11.60;99.90
25753;DHT22;13600;50.816;4.416;2023-04-10T03:19:53;11.60;99.90
25753;DHT22;13600;50.816;4.416;2023-04-10T03:22:18;11.70;99.90
25753;DHT22;13600;50.816;4.416;2023-04-10T03:24:44;11.70;99.90
25753;DHT22;13600;50.816;4.416;2023-04-10T03:27:09;11.70;99.90
25753;DHT22;13600;50.816;4.416;2023-04-10T03:29:35;11.60;99.90
25753;DHT22;13600;50.816;4.416;2023-04-10T03:32:00;11.60;99.90
25753;DHT22;13600;50.816;4.416;2023-04-10T03:34:26;11.70;99.90
25753;DHT22;13600;50.816;4.416;2023-04-10T03:36:51;11.70;99.90
25753;DHT22;13600;50.816;4.416;2023-04-10T03:39:17;11.70;99.90
25753;DHT22;13600;50.816;4.416;2023-04-10T03:41:42;11.70;99.90
25753;DHT22;13600;50.816;4.416;2023-04-10T03:44:08;11.80;99.90
25753;DHT22;13600;50.816;4.416;2023-04-10T03:46:33;11.90;99.90
25753;DHT22;13600;50.816;4.416;2023-04-10T03:48:59;12.00;99.90
25753;DHT22;13600;50.816;4.416;2023-04-10T03:51:25;12.00;99.90
25753;DHT22;13600;50.816;4.416;2023-04-10T03:53:51;12.10;99.90
25753;DHT22;13600;50.816;4.416;2023-04-10T03:56:17;12.30;99.90
25753;DHT22;13600;50.816;4.416;2023-04-10T03:58:42;12.00;99.90
25753;DHT22;13600;50.816;4.416;2023-04-10T04:01:08;11.90;99.90
25753;DHT22;13600;50.816;4.416;2023-04-10T04:03:33;11.90;99.90
25753;DHT22;13600;50.816;4.416;2023-04-10T04:06:00;11.80;99.90
25753;DHT22;13600;50.816;4.416;2023-04-10T04:08:26;11.60;99.90
25753;DHT22;13600;50.816;4.416;2023-04-10T04:10:51;11.50;99.90
25753;DHT22;13600;50.816;4.416;2023-04-10T04:13:17;11.50;99.90
25753;DHT22;13600;50.816;4.416;2023-04-10T04:15:43;11.60;99.90
25753;DHT22;13600;50.816;4.416;2023-04-10T04:18:09;11.70;99.90
25753;DHT22;13600;50.816;4.416;2023-04-10T04:20:35;11.80;99.90
25753;DHT22;13600;50.816;4.416;2023-04-10T04:23:00;11.80;99.90
25753;DHT22;13600;50.816;4.416;2023-04-10T04:25:26;11.80;99.90
25753;DHT22;13600;50.816;4.416;2023-04-10T04:27:51;11.70;99.90
25753;DHT22;13600;50.816;4.416;2023-04-10T04:30:17;11.70;99.90
25753;DHT22;13600;50.816;4.416;2023-04-10T04:32:42;11.70;99.90
25753;DHT22;13600;50.816;4.416;2023-04-10T04:35:08;11.70;99.90
25753;DHT22;13600;50.816;4.416;2023-04-10T04:37:34;11.60;99.90
25753;DHT22;13600;50.816;4.416;2023-04-10T04:40:00;11.80;99.90
25753;DHT22;13600;50.816;4.416;2023-04-10T04:42:25;11.90;99.90
25753;DHT22;13600;50.816;4.416;2023-04-10T04:44:51;11.90;99.90
25753;DHT22;13600;50.816;4.416;2023-04-10T04:47:16;11.90;99.90
25753;DHT22;13600;50.816;4.416;2023-04-10T04:49:42;11.80;99.90
25753;DHT22;13600;50.816;4.416;2023-04-10T04:52:08;11.80;99.90
25753;DHT22;13600;50.816;4.416;2023-04-10T04:54:33;12.00;99.90
25753;DHT22;13600;50.816;4.416;2023-04-10T04:56:59;12.00;99.90
25753;DHT22;13600;50.816;4.416;2023-04-10T04:59:25;12.00;99.90
25753;DHT22;13600;50.816;4.416;2023-04-10T05:01:51;12.00;99.90
25753;DHT22;13600;50.816;4.416;2023-04-10T05:04:17;11.90;99.90
25753;DHT22;13600;50.816;4.416;2023-04-10T05:06:42;12.00;99.90
25753;DHT22;13600;50.816;4.416;2023-04-10T05:09:08;11.80;99.90
25753;DHT22;13600;50.816;4.416;2023-04-10T05:11:34;11.80;99.90
25753;DHT22;13600;50.816;4.416;2023-04-10T05:14:00;11.90;99.90
25753;DHT22;13600;50.816;4.416;2023-04-10T05:16:26;11.90;99.90
25753;DHT22;13600;50.816;4.416;2023-04-10T05:18:51;12.10;99.90
25753;DHT22;13600;50.816;4.416;2023-04-10T05:21:17;12.10;99.90
25753;DHT22;13600;50.816;4.416;2023-04-10T05:23:42;12.10;99.90
25753;DHT22;13600;50.816;4.416;2023-04-10T05:26:08;12.00;99.90
25753;DHT22;13600;50.816;4.416;2023-04-10T05:28:33;12.00;99.90
25753;DHT22;13600;50.816;4.416;2023-04-10T05:30:59;11.80;99.90
25753;DHT22;13600;50.816;4.416;2023-04-10T05:33:25;11.90;99.90
25753;DHT22;13600;50.816;4.416;2023-04-10T05:35:51;11.90;99.90
25753;DHT22;13600;50.816;4.416;2023-04-10T05:38:17;11.80;99.90
25753;DHT22;13600;50.816;4.416;2023-04-10T05:40:45;11.80;99.90
25753;DHT22;13600;50.816;4.416;2023-04-10T05:43:11;11.90;99.90
25753;DHT22;13600;50.816;4.416;2023-04-10T05:45:38;11.90;99.90
25753;DHT22;13600;50.816;4.416;2023-04-10T05:48:04;12.00;99.90
25753;DHT22;13600;50.816;4.416;2023-04-10T05:50:30;12.00;99.90
25753;DHT22;13600;50.816;4.416;2023-04-10T05:52:56;12.00;99.90
25753;DHT22;13600;50.816;4.416;2023-04-10T05:55:21;12.10;99.90
25753;DHT22;13600;50.816;4.416;2023-04-10T05:57:47;12.10;99.90
25753;DHT22;13600;50.816;4.416;2023-04-10T06:00:12;12.20;99.90
25753;DHT22;13600;50.816;4.416;2023-04-10T06:02:39;12.20;99.90
25753;DHT22;13600;50.816;4.416;2023-04-10T06:05:05;12.00;99.90
25753;DHT22;13600;50.816;4.416;2023-04-10T06:07:30;12.20;99.90
25753;DHT22;13600;50.816;4.416;2023-04-10T06:09:57;12.40;99.90
25753;DHT22;13600;50.816;4.416;2023-04-10T06:12:23;12.40;99.90
25753;DHT22;13600;50.816;4.416;2023-04-10T06:14:48;12.40;99.90
25753;DHT22;13600;50.816;4.416;2023-04-10T06:17:14;12.50;99.90
25753;DHT22;13600;50.816;4.416;2023-04-10T06:19:39;12.40;99.90
25753;DHT22;13600;50.816;4.416;2023-04-10T06:22:06;12.40;99.90
25753;DHT22;13600;50.816;4.416;2023-04-10T06:24:32;12.40;99.90
25753;DHT22;13600;50.816;4.416;2023-04-10T06:26:58;12.40;99.90
25753;DHT22;13600;50.816;4.416;2023-04-10T06:29:24;12.30;99.90
25753;DHT22;13600;50.816;4.416;2023-04-10T06:31:49;12.40;99.90
25753;DHT22;13600;50.816;4.416;2023-04-10T06:34:15;12.40;99.90
25753;DHT22;13600;50.816;4.416;2023-04-10T06:36:40;12.40;99.90
25753;DHT22;13600;50.816;4.416;2023-04-10T06:39:06;12.30;99.90
25753;DHT22;13600;50.816;4.416;2023-04-10T06:41:32;12.30;99.90
25753;DHT22;13600;50.816;4.416;2023-04-10T06:43:57;12.20;99.90
25753;DHT22;13600;50.816;4.416;2023-04-10T06:46:23;12.10;99.90
25753;DHT22;13600;50.816;4.416;2023-04-10T06:48:48;12.30;99.90
25753;DHT22;13600;50.816;4.416;2023-04-10T06:51:14;12.40;99.90
25753;DHT22;13600;50.816;4.416;2023-04-10T06:53:39;12.30;99.90
25753;DHT22;13600;50.816;4.416;2023-04-10T06:56:05;12.30;99.90
25753;DHT22;13600;50.816;4.416;2023-04-10T06:58:31;12.20;99.90
25753;DHT22;13600;50.816;4.416;2023-04-10T07:00:58;12.10;99.90
25753;DHT22;13600;50.816;4.416;2023-04-10T07:03:28;12.20;99.90
25753;DHT22;13600;50.816;4.416;2023-04-10T07:05:55;12.40;99.90
25753;DHT22;13600;50.816;4.416;2023-04-10T07:08:21;12.60;99.90
25753;DHT22;13600;50.816;4.416;2023-04-10T07:10:46;12.70;99.90
25753;DHT22;13600;50.816;4.416;2023-04-10T07:13:12;12.60;99.90
25753;DHT22;13600;50.816;4.416;2023-04-10T07:15:37;12.70;99.90
25753;DHT22;13600;50.816;4.416;2023-04-10T07:18:04;12.70;99.90
25753;DHT22;13600;50.816;4.416;2023-04-10T07:20:29;12.90;99.90
25753;DHT22;13600;50.816;4.416;2023-04-10T07:22:55;12.90;99.90
25753;DHT22;13600;50.816;4.416;2023-04-10T07:25:20;12.90;99.90
25753;DHT22;13600;50.816;4.416;2023-04-10T07:27:46;12.90;99.90
25753;DHT22;13600;50.816;4.416;2023-04-10T07:30:12;13.00;99.90
25753;DHT22;13600;50.816;4.416;2023-04-10T07:32:37;13.30;99.90
25753;DHT22;13600;50.816;4.416;2023-04-10T07:35:04;13.50;99.90
25753;DHT22;13600;50.816;4.416;2023-04-10T07:37:30;13.70;99.90
25753;DHT22;13600;50.816;4.416;2023-04-10T07:39:57;13.80;99.90
25753;DHT22;13600;50.816;4.416;2023-04-10T07:42:22;13.80;99.90
25753;DHT22;13600;50.816;4.416;2023-04-10T07:44:48;13.60;99.90
25753;DHT22;13600;50.816;4.416;2023-04-10T07:47:14;13.40;99.90
25753;DHT22;13600;50.816;4.416;2023-04-10T07:49:39;13.60;99.90
25753;DHT22;13600;50.816;4.416;2023-04-10T07:52:05;13.80;99.90
25753;DHT22;13600;50.816;4.416;2023-04-10T07:54:31;13.80;99.90
25753;DHT22;13600;50.816;4.416;2023-04-10T07:56:58;14.10;99.90
25753;DHT22;13600;50.816;4.416;2023-04-10T07:59:23;13.60;99.90
25753;DHT22;13600;50.816;4.416;2023-04-10T08:01:52;13.60;99.90
25753;DHT22;13600;50.816;4.416;2023-04-10T08:04:18;13.40;99.90
25753;DHT22;13600;50.816;4.416;2023-04-10T08:06:44;13.50;99.90
25753;DHT22;13600;50.816;4.416;2023-04-10T08:09:10;13.70;99.90
25753;DHT22;13600;50.816;4.416;2023-04-10T08:11:36;13.80;99.90
25753;DHT22;13600;50.816;4.416;2023-04-10T08:14:02;14.10;99.90
25753;DHT22;13600;50.816;4.416;2023-04-10T08:16:29;14.30;99.90
25753;DHT22;13600;50.816;4.416;2023-04-10T08:18:55;14.30;99.90
25753;DHT22;13600;50.816;4.416;2023-04-10T08:21:22;14.10;99.90
25753;DHT22;13600;50.816;4.416;2023-04-10T08:23:58;14.00;99.90
25753;DHT22;13600;50.816;4.416;2023-04-10T08:26:24;14.00;99.90
25753;DHT22;13600;50.816;4.416;2023-04-10T08:28:51;13.80;99.90
25753;DHT22;13600;50.816;4.416;2023-04-10T08:31:17;13.90;99.90
25753;DHT22;13600;50.816;4.416;2023-04-10T08:33:43;13.80;99.90
25753;DHT22;13600;50.816;4.416;2023-04-10T08:36:09;14.00;99.90
25753;DHT22;13600;50.816;4.416;2023-04-10T08:38:34;14.00;99.90
25753;DHT22;13600;50.816;4.416;2023-04-10T08:41:00;14.10;99.90
25753;DHT22;13600;50.816;4.416;2023-04-10T08:43:26;14.20;99.90
25753;DHT22;13600;50.816;4.416;2023-04-10T08:45:52;14.40;99.90
25753;DHT22;13600;50.816;4.416;2023-04-10T08:48:18;14.40;99.90
25753;DHT22;13600;50.816;4.416;2023-04-10T08:50:45;14.40;99.90
25753;DHT22;13600;50.816;4.416;2023-04-10T08:53:12;14.40;99.90
25753;DHT22;13600;50.816;4.416;2023-04-10T08:55:39;14.40;99.90
25753;DHT22;13600;50.816;4.416;2023-04-10T08:58:05;14.30;99.90
25753;DHT22;13600;50.816;4.416;2023-04-10T09:00:34;14.50;99.90
25753;DHT22;13600;50.816;4.416;2023-04-10T09:03:13;14.40;99.90
25753;DHT22;13600;50.816;4.416;2023-04-10T09:05:39;14.40;99.90
25753;DHT22;13600;50.816;4.416;2023-04-10T09:08:06;14.40;99.90
25753;DHT22;13600;50.816;4.416;2023-04-10T09:10:31;14.40;99.90
25753;DHT22;13600;50.816;4.416;2023-04-10T09:12:57;14.60;99.90
25753;DHT22;13600;50.816;4.416;2023-04-10T09:15:23;14.90;99.90
25753;DHT22;13600;50.816;4.416;2023-04-10T09:18:01;15.10;99.90
25753;DHT22;13600;50.816;4.416;2023-04-10T09:20:37;15.40;99.90
25753;DHT22;13600;50.816;4.416;2023-04-10T09:23:18;15.40;99.90
25753;DHT22;13600;50.816;4.416;2023-04-10T09:25:43;15.40;99.90
25753;DHT22;13600;50.816;4.416;2023-04-10T09:28:10;15.50;99.90
25753;DHT22;13600;50.816;4.416;2023-04-10T09:30:38;15.50;99.90
25753;DHT22;13600;50.816;4.416;2023-04-10T09:33:23;15.60;99.90
25753;DHT22;13600;50.816;4.416;2023-04-10T09:35:49;15.60;99.90
25753;DHT22;13600;50.816;4.416;2023-04-10T09:40:41;16.00;99.90
25753;DHT22;13600;50.816;4.416;2023-04-10T09:43:19;15.80;99.90
25753;DHT22;13600;50.816;4.416;2023-04-10T09:45:45;15.90;99.90
25753;DHT22;13600;50.816;4.416;2023-04-10T09:48:11;15.70;99.90
25753;DHT22;13600;50.816;4.416;2023-04-10T09:50:37;15.70;99.90
25753;DHT22;13600;50.816;4.416;2023-04-10T09:53:05;16.10;99.90
25753;DHT22;13600;50.816;4.416;2023-04-10T09:55:32;16.10;99.90
25753;DHT22;13600;50.816;4.416;2023-04-10T09:57:58;16.50;99.90
25753;DHT22;13600;50.816;4.416;2023-04-10T10:00:24;16.90;99.90
25753;DHT22;13600;50.816;4.416;2023-04-10T10:02:50;17.00;99.90
25753;DHT22;13600;50.816;4.416;2023-04-10T10:05:16;16.90;99.90
25753;DHT22;13600;50.816;4.416;2023-04-10T10:07:42;17.10;99.90
25753;DHT22;13600;50.816;4.416;2023-04-10T10:10:09;17.50;99.90
25753;DHT22;13600;50.816;4.416;2023-04-10T10:12:41;17.60;99.90
25753;DHT22;13600;50.816;4.416;2023-04-10T10:17:50;18.50;99.90
25753;DHT22;13600;50.816;4.416;2023-04-10T10:20:20;18.50;99.90
25753;DHT22;13600;50.816;4.416;2023-04-10T10:22:46;18.70;99.90
25753;DHT22;13600;50.816;4.416;2023-04-10T10:25:13;18.80;99.90
25753;DHT22;13600;50.816;4.416;2023-04-10T10:27:39;19.70;99.90
25753;DHT22;13600;50.816;4.416;2023-04-10T10:30:06;19.80;99.90
25753;DHT22;13600;50.816;4.416;2023-04-10T10:32:33;19.40;99.90
25753;DHT22;13600;50.816;4.416;2023-04-10T10:35:00;19.50;99.90
25753;DHT22;13600;50.816;4.416;2023-04-10T10:37:26;19.70;99.90
25753;DHT22;13600;50.816;4.416;2023-04-10T10:40:13;19.60;99.90
25753;DHT22;13600;50.816;4.416;2023-04-10T10:45:25;19.60;99.90
25753;DHT22;13600;50.816;4.416;2023-04-10T10:47:55;19.70;99.90
25753;DHT22;13600;50.816;4.416;2023-04-10T10:50:20;19.50;99.90
25753;DHT22;13600;50.816;4.416;2023-04-10T10:52:49;19.40;99.90
25753;DHT22;13600;50.816;4.416;2023-04-10T11:00:18;18.80;99.90
25753;DHT22;13600;50.816;4.416;2023-04-10T11:02:43;19.10;99.90
25753;DHT22;13600;50.816;4.416;2023-04-10T11:05:09;19.30;99.90
25753;DHT22;13600;50.816;4.416;2023-04-10T11:13:21;18.60;99.90
25753;DHT22;13600;50.816;4.416;2023-04-10T11:15:50;18.70;99.90
25753;DHT22;13600;50.816;4.416;2023-04-10T11:18:17;18.70;99.90
25753;DHT22;13600;50.816;4.416;2023-04-10T11:23:29;18.70;99.90
25753;DHT22;13600;50.816;4.416;2023-04-10T11:25:55;18.70;99.90
25753;DHT22;13600;50.816;4.416;2023-04-10T11:28:36;18.70;99.90
25753;DHT22;13600;50.816;4.416;2023-04-10T11:33:48;18.60;99.90
25753;DHT22;13600;50.816;4.416;2023-04-10T11:36:14;18.50;99.90
25753;DHT22;13600;50.816;4.416;2023-04-10T11:38:52;18.50;99.90
25753;DHT22;13600;50.816;4.416;2023-04-10T11:41:18;18.40;99.90
25753;DHT22;13600;50.816;4.416;2023-04-10T11:43:43;18.40;99.90
25753;DHT22;13600;50.816;4.416;2023-04-10T11:46:09;18.40;99.90
25753;DHT22;13600;50.816;4.416;2023-04-10T11:48:35;18.40;99.90
25753;DHT22;13600;50.816;4.416;2023-04-10T11:51:08;18.40;99.90
25753;DHT22;13600;50.816;4.416;2023-04-10T11:53:34;18.50;99.90
25753;DHT22;13600;50.816;4.416;2023-04-10T11:55:59;18.50;99.90
25753;DHT22;13600;50.816;4.416;2023-04-10T11:58:26;18.70;99.90
25753;DHT22;13600;50.816;4.416;2023-04-10T12:00:58;18.80;99.90
25753;DHT22;13600;50.816;4.416;2023-04-10T12:05:56;18.60;99.90
25753;DHT22;13600;50.816;4.416;2023-04-10T12:08:29;18.60;99.90
25753;DHT22;13600;50.816;4.416;2023-04-10T12:10:55;18.50;99.90
25753;DHT22;13600;50.816;4.416;2023-04-10T12:13:24;18.70;99.90
25753;DHT22;13600;50.816;4.416;2023-04-10T12:15:51;18.60;99.90
25753;DHT22;13600;50.816;4.416;2023-04-10T12:18:17;18.60;99.90
25753;DHT22;13600;50.816;4.416;2023-04-10T12:20:43;18.40;99.90
25753;DHT22;13600;50.816;4.416;2023-04-10T12:23:09;18.30;99.90
25753;DHT22;13600;50.816;4.416;2023-04-10T12:25:35;18.30;99.90
25753;DHT22;13600;50.816;4.416;2023-04-10T12:28:00;18.40;99.90
25753;DHT22;13600;50.816;4.416;2023-04-10T12:30:26;18.40;99.90
25753;DHT22;13600;50.816;4.416;2023-04-10T12:32:52;18.40;99.90
25753;DHT22;13600;50.816;4.416;2023-04-10T12:35:36;18.50;99.90
25753;DHT22;13600;50.816;4.416;2023-04-10T12:38:01;18.40;99.90
25753;DHT22;13600;50.816;4.416;2023-04-10T12:40:27;18.20;99.90
25753;DHT22;13600;50.816;4.416;2023-04-10T12:42:52;18.20;99.90
25753;DHT22;13600;50.816;4.416;2023-04-10T12:45:18;18.30;99.90
25753;DHT22;13600;50.816;4.416;2023-04-10T12:47:44;18.20;99.90
25753;DHT22;13600;50.816;4.416;2023-04-10T12:50:14;18.30;99.90
25753;DHT22;13600;50.816;4.416;2023-04-10T12:52:41;18.30;99.90
25753;DHT22;13600;50.816;4.416;2023-04-10T12:55:14;18.30;99.90
25753;DHT22;13600;50.816;4.416;2023-04-10T12:57:41;18.20;99.90
25753;DHT22;13600;50.816;4.416;2023-04-10T13:00:07;18.20;99.90
25753;DHT22;13600;50.816;4.416;2023-04-10T13:02:37;18.00;99.90
25753;DHT22;13600;50.816;4.416;2023-04-10T13:05:03;17.70;99.90
25753;DHT22;13600;50.816;4.416;2023-04-10T13:07:29;17.50;99.90
25753;DHT22;13600;50.816;4.416;2023-04-10T13:09:54;17.30;99.90
25753;DHT22;13600;50.816;4.416;2023-04-10T13:12:20;17.20;99.90
25753;DHT22;13600;50.816;4.416;2023-04-10T13:14:46;17.10;99.90
25753;DHT22;13600;50.816;4.416;2023-04-10T13:17:12;17.00;99.90
25753;DHT22;13600;50.816;4.416;2023-04-10T13:19:40;17.00;99.90
25753;DHT22;13600;50.816;4.416;2023-04-10T13:22:06;17.30;99.90
25753;DHT22;13600;50.816;4.416;2023-04-10T13:24:34;17.60;99.90
25753;DHT22;13600;50.816;4.416;2023-04-10T13:27:01;17.60;99.90
25753;DHT22;13600;50.816;4.416;2023-04-10T13:29:27;17.80;99.90
25753;DHT22;13600;50.816;4.416;2023-04-10T13:31:53;17.90;99.90
25753;DHT22;13600;50.816;4.416;2023-04-10T13:34:18;17.80;99.90
25753;DHT22;13600;50.816;4.416;2023-04-10T13:36:44;17.90;99.90
25753;DHT22;13600;50.816;4.416;2023-04-10T13:39:11;17.80;99.90
25753;DHT22;13600;50.816;4.416;2023-04-10T13:41:46;17.80;99.90
25753;DHT22;13600;50.816;4.416;2023-04-10T13:44:12;17.90;99.90
25753;DHT22;13600;50.816;4.416;2023-04-10T13:46:38;18.00;99.90
25753;DHT22;13600;50.816;4.416;2023-04-10T13:49:03;17.90;99.90
25753;DHT22;13600;50.816;4.416;2023-04-10T13:51:29;17.90;99.90
25753;DHT22;13600;50.816;4.416;2023-04-10T13:53:56;18.10;99.90
25753;DHT22;13600;50.816;4.416;2023-04-10T13:56:22;18.00;99.90
25753;DHT22;13600;50.816;4.416;2023-04-10T13:58:49;17.80;99.90
25753;DHT22;13600;50.816;4.416;2023-04-10T14:01:16;17.70;99.90
25753;DHT22;13600;50.816;4.416;2023-04-10T14:03:41;17.70;99.90
25753;DHT22;13600;50.816;4.416;2023-04-10T14:06:07;17.80;99.90
25753;DHT22;13600;50.816;4.416;2023-04-10T14:08:32;17.90;99.90
25753;DHT22;13600;50.816;4.416;2023-04-10T14:10:58;18.00;99.90
25753;DHT22;13600;50.816;4.416;2023-04-10T14:13:23;18.00;99.90
25753;DHT22;13600;50.816;4.416;2023-04-10T14:15:49;18.00;99.90
25753;DHT22;13600;50.816;4.416;2023-04-10T14:18:17;17.90;99.90
25753;DHT22;13600;50.816;4.416;2023-04-10T14:20:44;17.90;99.90
25753;DHT22;13600;50.816;4.416;2023-04-10T14:23:09;18.00;99.90
25753;DHT22;13600;50.816;4.416;2023-04-10T14:25:41;18.20;99.90
25753;DHT22;13600;50.816;4.416;2023-04-10T14:28:06;18.40;99.90
25753;DHT22;13600;50.816;4.416;2023-04-10T14:30:33;18.50;99.90
25753;DHT22;13600;50.816;4.416;2023-04-10T14:33:00;18.20;99.90
25753;DHT22;13600;50.816;4.416;2023-04-10T14:35:26;18.10;99.90
25753;DHT22;13600;50.816;4.416;2023-04-10T14:37:51;18.00;99.90
25753;DHT22;13600;50.816;4.416;2023-04-10T14:40:17;17.80;99.90
25753;DHT22;13600;50.816;4.416;2023-04-10T14:42:42;17.70;99.90
25753;DHT22;13600;50.816;4.416;2023-04-10T14:45:09;17.80;99.90
25753;DHT22;13600;50.816;4.416;2023-04-10T14:47:35;17.60;99.90
25753;DHT22;13600;50.816;4.416;2023-04-10T14:50:00;17.30;99.90
25753;DHT22;13600;50.816;4.416;2023-04-10T14:52:27;17.10;99.90
25753;DHT22;13600;50.816;4.416;2023-04-10T14:54:52;16.70;99.90
25753;DHT22;13600;50.816;4.416;2023-04-10T14:57:18;16.40;99.90
25753;DHT22;13600;50.816;4.416;2023-04-10T14:59:43;16.10;99.90
25753;DHT22;13600;50.816;4.416;2023-04-10T15:02:09;15.90;99.90
25753;DHT22;13600;50.816;4.416;2023-04-10T15:04:35;15.70;99.90
25753;DHT22;13600;50.816;4.416;2023-04-10T15:07:00;15.80;99.90
25753;DHT22;13600;50.816;4.416;2023-04-10T15:09:26;15.70;99.90
25753;DHT22;13600;50.816;4.416;2023-04-10T15:11:51;15.70;99.90
25753;DHT22;13600;50.816;4.416;2023-04-10T15:14:19;15.70;99.90
25753;DHT22;13600;50.816;4.416;2023-04-10T15:16:44;15.60;99.90
25753;DHT22;13600;50.816;4.416;2023-04-10T15:19:11;15.90;99.90
25753;DHT22;13600;50.816;4.416;2023-04-10T15:21:37;16.10;99.90
25753;DHT22;13600;50.816;4.416;2023-04-10T15:24:02;16.10;99.90
25753;DHT22;13600;50.816;4.416;2023-04-10T15:26:28;16.10;99.90
25753;DHT22;13600;50.816;4.416;2023-04-10T15:28:53;16.00;99.90
25753;DHT22;13600;50.816;4.416;2023-04-10T15:31:22;15.90;99.90
25753;DHT22;13600;50.816;4.416;2023-04-10T15:33:50;15.70;99.90
25753;DHT22;13600;50.816;4.416;2023-04-10T15:36:16;15.50;99.90
25753;DHT22;13600;50.816;4.416;2023-04-10T15:38:42;15.20;99.90
25753;DHT22;13600;50.816;4.416;2023-04-10T15:41:11;15.10;99.90
25753;DHT22;13600;50.816;4.416;2023-04-10T15:43:37;15.10;99.90
25753;DHT22;13600;50.816;4.416;2023-04-10T15:46:03;15.10;99.90
25753;DHT22;13600;50.816;4.416;2023-04-10T15:48:30;15.00;99.90
25753;DHT22;13600;50.816;4.416;2023-04-10T15:50:57;15.00;99.90
25753;DHT22;13600;50.816;4.416;2023-04-10T15:53:23;14.90;99.90
25753;DHT22;13600;50.816;4.416;2023-04-10T15:55:49;15.00;99.90
25753;DHT22;13600;50.816;4.416;2023-04-10T15:58:14;14.90;99.90
25753;DHT22;13600;50.816;4.416;2023-04-10T16:00:40;14.90;99.90
25753;DHT22;13600;50.816;4.416;2023-04-10T16:03:05;14.80;99.90